createdAt,value
2022-12-18T00:01:32.134Z,20.80
2022-12-18T00:04:57.006Z,21.10
2022-12-18T00:08:20.885Z,20.67
2022-12-18T00:11:43.961Z,17.70
2022-12-18T00:15:07.711Z,18.23
2022-12-18T00:18:31.950Z,19.60
2022-12-18T00:21:55.767Z,16.83
2022-12-18T00:25:18.673Z,14.47
2022-12-18T00:28:41.563Z,16.70
2022-12-18T00:32:06.800Z,15.37
2022-12-18T00:35:31.014Z,14.27
2022-12-18T00:38:55.632Z,18.70
2022-12-18T00:42:35.862Z,15.97
2022-12-18T00:45:58.882Z,16.60
2022-12-18T00:49:25.398Z,14.73
2022-12-18T00:52:49.659Z,16.07
2022-12-18T00:56:14.179Z,15.03
2022-12-18T00:59:37.091Z,16.37
2022-12-18T01:03:00.342Z,16.47
2022-12-18T01:06:23.346Z,16.03
2022-12-18T01:09:47.581Z,14.63
2022-12-18T01:13:10.669Z,11.80
2022-12-18T01:16:33.719Z,12.00
2022-12-18T01:19:59.587Z,10.97
2022-12-18T01:23:22.821Z,10.93
2022-12-18T01:26:47.139Z,10.73
2022-12-18T01:30:12.031Z,11.37
2022-12-18T01:33:35.269Z,9.40
2022-12-18T01:36:58.353Z,10.33
2022-12-18T01:40:21.342Z,10.70
2022-12-18T01:43:51.897Z,12.23
2022-12-18T01:47:17.764Z,12.23
2022-12-18T01:50:42.764Z,13.23
2022-12-18T01:54:06.752Z,13.43
2022-12-18T01:57:30.802Z,14.20
2022-12-18T02:00:56.565Z,12.63
2022-12-18T02:04:22.661Z,13.53
2022-12-18T02:07:54.580Z,13.17
2022-12-18T02:11:26.092Z,12.57
2022-12-18T02:14:59.953Z,13.50
2022-12-18T02:18:29.378Z,12.60
2022-12-18T02:21:59.338Z,12.80
2022-12-18T02:25:37.624Z,11.37
2022-12-18T02:29:07.793Z,11.87
2022-12-18T02:32:37.468Z,11.40
2022-12-18T02:36:01.940Z,12.53
2022-12-18T02:39:27.912Z,12.97
2022-12-18T02:42:55.240Z,11.80
2022-12-18T02:46:34.251Z,12.97
2022-12-18T02:50:11.940Z,13.67
2022-12-18T02:53:43.060Z,14.33
2022-12-18T02:57:16.886Z,17.43
2022-12-18T03:00:46.034Z,14.17
2022-12-18T03:04:14.855Z,12.93
2022-12-18T03:07:43.248Z,12.57
2022-12-18T03:11:10.774Z,12.10
2022-12-18T03:14:36.044Z,11.57
2022-12-18T03:18:03.898Z,11.27
2022-12-18T03:21:33.871Z,9.70
2022-12-18T03:24:58.872Z,11.30
2022-12-18T03:28:24.636Z,10.57
2022-12-18T03:32:00.413Z,10.17
2022-12-18T03:35:30.829Z,9.57
2022-12-18T03:39:03.438Z,10.23
2022-12-18T03:42:34.544Z,9.97
2022-12-18T03:46:09.641Z,10.93
2022-12-18T03:49:37.741Z,10.63
2022-12-18T03:53:12.301Z,10.27
2022-12-18T03:56:42.137Z,11.13
2022-12-18T04:00:10.042Z,12.07
2022-12-18T04:03:40.135Z,12.60
2022-12-18T04:07:05.286Z,10.97
2022-12-18T04:10:31.213Z,9.30
2022-12-18T04:13:59.874Z,10.37
2022-12-18T04:17:23.442Z,10.30
2022-12-18T04:20:46.674Z,9.70
2022-12-18T04:24:09.951Z,10.37
2022-12-18T04:27:37.696Z,9.07
2022-12-18T04:31:03.646Z,9.53
2022-12-18T04:34:26.794Z,9.77
2022-12-18T04:37:51.142Z,10.00
2022-12-18T04:41:17.531Z,8.90
2022-12-18T04:44:43.585Z,7.83
2022-12-18T04:48:08.421Z,9.00
2022-12-18T04:51:31.571Z,9.70
2022-12-18T04:54:54.622Z,8.40
2022-12-18T04:58:17.875Z,8.90
2022-12-18T05:01:41.113Z,9.43
2022-12-18T05:05:06.809Z,8.90
2022-12-18T05:08:29.891Z,8.43
2022-12-18T05:11:52.981Z,8.73
2022-12-18T05:15:16.124Z,7.77
2022-12-18T05:18:39.957Z,8.13
2022-12-18T05:22:04.516Z,8.53
2022-12-18T05:25:27.809Z,7.27
2022-12-18T05:28:50.980Z,7.77
2022-12-18T05:32:14.049Z,8.30
2022-12-18T05:35:37.136Z,7.80
2022-12-18T05:39:02.187Z,7.80
2022-12-18T05:42:25.393Z,7.23
2022-12-18T05:45:48.449Z,7.70
2022-12-18T05:49:11.531Z,7.30
2022-12-18T05:52:34.597Z,8.00
2022-12-18T05:56:02.481Z,10.20
2022-12-18T05:59:25.900Z,10.20
2022-12-18T06:02:49.352Z,10.47
2022-12-18T06:06:16.865Z,11.97
2022-12-18T06:09:39.931Z,11.37
2022-12-18T06:13:04.665Z,9.73
2022-12-18T06:16:28.765Z,10.23
2022-12-18T06:19:51.878Z,9.77
2022-12-18T06:23:14.953Z,8.73
2022-12-18T06:26:39.928Z,9.10
2022-12-18T06:30:05.430Z,11.23
2022-12-18T06:33:29.984Z,12.43
2022-12-18T06:36:53.153Z,11.70
2022-12-18T06:40:16.390Z,12.07
2022-12-18T06:43:40.347Z,11.13
2022-12-18T06:47:05.167Z,20.17
2022-12-18T06:50:28.311Z,10.20
2022-12-18T06:53:51.764Z,23.23
2022-12-18T06:57:14.963Z,10.33
2022-12-18T07:00:38.046Z,8.97
2022-12-18T07:04:02.381Z,9.53
2022-12-18T07:07:25.365Z,9.50
2022-12-18T07:10:55.798Z,10.73
2022-12-18T07:14:19.244Z,10.13
2022-12-18T07:17:42.118Z,11.97
2022-12-18T07:21:07.457Z,9.33
2022-12-18T07:24:31.044Z,11.83
2022-12-18T07:27:54.197Z,11.40
2022-12-18T07:31:19.185Z,11.30
2022-12-18T07:34:42.133Z,10.67
2022-12-18T07:38:06.408Z,11.10
2022-12-18T07:41:29.409Z,11.07
2022-12-18T07:44:55.494Z,12.93
2022-12-18T07:48:18.467Z,12.37
2022-12-18T07:51:41.525Z,10.20
2022-12-18T07:55:06.752Z,8.87
2022-12-18T07:58:31.141Z,9.90
2022-12-18T08:01:54.133Z,11.73
2022-12-18T08:05:20.004Z,11.20
2022-12-18T08:08:43.319Z,8.93
2022-12-18T08:12:10.625Z,9.93
2022-12-18T08:15:33.549Z,11.73
2022-12-18T08:18:56.479Z,10.27
2022-12-18T08:22:19.622Z,9.30
2022-12-18T08:25:42.533Z,9.30
2022-12-18T08:29:06.799Z,9.50
2022-12-18T08:32:30.215Z,9.90
2022-12-18T08:35:53.138Z,9.07
2022-12-18T08:39:16.194Z,8.90
2022-12-18T08:42:56.929Z,10.17
2022-12-18T08:46:22.468Z,9.37
2022-12-18T08:49:45.451Z,9.80
2022-12-18T08:53:08.644Z,10.10
2022-12-18T08:56:32.070Z,9.13
2022-12-18T08:59:55.079Z,10.77
2022-12-18T09:03:20.929Z,10.40
2022-12-18T09:06:44.436Z,9.40
2022-12-18T09:10:08.399Z,9.93
2022-12-18T09:13:31.307Z,10.70
2022-12-18T09:16:54.507Z,11.10
2022-12-18T09:20:19.039Z,11.57
2022-12-18T09:23:42.121Z,11.60
2022-12-18T09:27:05.196Z,11.70
2022-12-18T09:30:28.505Z,11.47
2022-12-18T09:33:51.518Z,11.50
2022-12-18T09:37:15.757Z,10.93
2022-12-18T09:40:43.932Z,11.87
2022-12-18T09:44:15.774Z,10.70
2022-12-18T09:47:41.164Z,9.40
2022-12-18T09:51:11.367Z,8.90
2022-12-18T09:54:47.806Z,9.07
2022-12-18T09:58:18.893Z,11.00
2022-12-18T10:01:44.607Z,10.10
2022-12-18T10:05:15.261Z,10.30
2022-12-18T10:08:45.582Z,10.07
2022-12-18T10:12:20.826Z,11.20
2022-12-18T10:15:56.480Z,10.17
2022-12-18T10:19:30.985Z,10.40
2022-12-18T10:23:01.598Z,9.90
2022-12-18T10:26:24.496Z,10.00
2022-12-18T10:29:49.610Z,9.03
2022-12-18T10:33:18.277Z,10.13
2022-12-18T10:36:41.190Z,10.27
2022-12-18T10:40:16.673Z,9.97
2022-12-18T10:43:43.156Z,10.40
2022-12-18T10:47:14.129Z,10.30
2022-12-18T10:54:25.671Z,10.17
2022-12-18T10:57:48.798Z,9.70
2022-12-18T11:01:14.455Z,12.70
2022-12-18T11:04:55.764Z,9.73
2022-12-18T11:08:23.661Z,10.77
2022-12-18T11:11:53.141Z,11.13
2022-12-18T11:15:20.731Z,11.70
2022-12-18T11:18:43.942Z,10.43
2022-12-18T11:22:22.347Z,10.63
2022-12-18T11:25:54.537Z,11.60
2022-12-18T11:29:20.304Z,11.80
2022-12-18T11:32:47.052Z,11.83
2022-12-18T11:36:11.414Z,12.03
2022-12-18T11:39:40.226Z,10.60
2022-12-18T11:43:10.498Z,11.47
2022-12-18T11:46:36.862Z,12.00
2022-12-18T11:50:03.777Z,11.70
2022-12-18T11:53:28.644Z,11.47
2022-12-18T11:56:58.172Z,11.30
2022-12-18T12:00:22.696Z,13.57
2022-12-18T12:04:15.909Z,12.83
2022-12-18T12:07:49.718Z,12.20
2022-12-18T12:11:21.023Z,10.97
2022-12-18T12:14:53.043Z,11.90
2022-12-18T12:18:24.064Z,12.93
2022-12-18T12:22:00.136Z,11.97
2022-12-18T12:25:35.105Z,11.83
2022-12-18T12:29:10.519Z,11.97
2022-12-18T12:32:54.875Z,12.77
2022-12-18T12:36:24.741Z,11.70
2022-12-18T12:39:49.538Z,12.73
2022-12-18T12:43:27.047Z,11.17
2022-12-18T12:46:51.141Z,12.03
2022-12-18T12:50:19.411Z,13.07
2022-12-18T12:53:43.599Z,11.80
2022-12-18T12:57:13.395Z,13.07
2022-12-18T13:00:43.175Z,14.50
2022-12-18T13:04:17.281Z,15.07
2022-12-18T13:07:48.400Z,14.63
2022-12-18T13:11:59.535Z,12.83
2022-12-18T13:15:26.399Z,16.43
2022-12-18T13:18:55.184Z,14.93
2022-12-18T13:22:33.464Z,14.03
2022-12-18T13:25:58.474Z,13.77
2022-12-18T13:29:42.916Z,14.20
2022-12-18T13:34:01.979Z,15.30
2022-12-18T13:37:42.892Z,15.00
2022-12-18T13:41:25.291Z,15.00
2022-12-18T13:44:48.862Z,14.13
2022-12-18T13:48:26.054Z,13.50
2022-12-18T13:51:50.739Z,15.27
2022-12-18T13:55:20.500Z,13.70
2022-12-18T13:58:45.805Z,12.63
2022-12-18T14:02:16.854Z,15.00
2022-12-18T14:05:44.351Z,14.27
2022-12-18T14:09:11.842Z,15.27
2022-12-18T14:12:55.795Z,14.97
2022-12-18T14:16:20.254Z,17.60
2022-12-18T14:19:45.388Z,16.77
2022-12-18T14:23:31.624Z,14.43
2022-12-18T14:26:54.633Z,15.47
2022-12-18T14:30:30.755Z,14.30
2022-12-18T14:33:56.137Z,14.67
2022-12-18T14:37:22.176Z,16.03
2022-12-18T14:40:45.208Z,16.80
2022-12-18T14:44:13.991Z,15.93
2022-12-18T14:47:37.047Z,17.73
2022-12-18T14:51:04.302Z,15.43
2022-12-18T14:54:28.960Z,17.50
2022-12-18T14:57:54.582Z,18.37
2022-12-18T15:01:22.430Z,17.17
2022-12-18T15:04:45.987Z,17.53
2022-12-18T15:08:36.851Z,18.17
2022-12-18T15:12:01.460Z,18.47
2022-12-18T15:15:46.882Z,19.63
2022-12-18T15:19:10.427Z,18.67
2022-12-18T15:22:37.479Z,19.00
2022-12-18T15:26:04.135Z,17.37
2022-12-18T15:29:27.232Z,17.13
2022-12-18T15:32:51.536Z,19.13
2022-12-18T15:36:17.596Z,19.67
2022-12-18T15:39:48.418Z,23.57
2022-12-18T15:43:30.277Z,21.83
2022-12-18T15:46:53.516Z,22.03
2022-12-18T15:50:16.524Z,22.53
2022-12-18T15:53:40.857Z,22.30
2022-12-18T15:57:21.364Z,21.27
2022-12-18T16:00:45.687Z,23.30
2022-12-18T16:04:12.596Z,24.23
2022-12-18T16:07:35.497Z,23.30
2022-12-18T16:10:58.816Z,20.20
2022-12-18T16:14:24.686Z,21.60
2022-12-18T16:17:49.881Z,24.97
2022-12-18T16:21:13.113Z,23.00
2022-12-18T16:24:37.001Z,21.03
2022-12-18T16:27:59.927Z,21.67
2022-12-18T16:31:22.820Z,22.13
2022-12-18T16:34:47.732Z,26.97
2022-12-18T16:38:10.645Z,23.93
2022-12-18T16:41:34.631Z,22.50
2022-12-18T16:44:57.580Z,23.53
2022-12-18T16:48:20.536Z,25.63
2022-12-18T16:51:45.020Z,23.83
2022-12-18T16:55:08.940Z,26.83
2022-12-18T16:58:31.891Z,22.97
2022-12-18T17:01:55.677Z,24.10
2022-12-18T17:05:18.751Z,25.27
2022-12-18T17:08:42.964Z,29.20
2022-12-18T17:12:06.445Z,25.07
2022-12-18T17:15:29.303Z,27.17
2022-12-18T17:18:53.433Z,30.63
2022-12-18T17:22:16.334Z,28.13
2022-12-18T17:25:42.281Z,28.53
2022-12-18T17:29:05.468Z,33.97
2022-12-18T17:32:28.669Z,25.47
2022-12-18T17:35:51.755Z,30.10
2022-12-18T17:39:20.102Z,29.63
2022-12-18T17:42:44.339Z,29.17
2022-12-18T17:46:10.366Z,31.07
2022-12-18T17:49:33.359Z,28.60
2022-12-18T17:52:57.023Z,27.57
2022-12-18T17:56:22.153Z,29.50
2022-12-18T17:59:46.431Z,28.10
2022-12-18T18:03:09.644Z,31.40
2022-12-18T18:06:32.819Z,32.33
2022-12-18T18:09:57.755Z,32.20
2022-12-18T18:13:46.401Z,31.70
2022-12-18T18:17:11.394Z,32.23
2022-12-18T18:20:34.336Z,29.17
2022-12-18T18:24:01.104Z,30.37
2022-12-18T18:27:23.993Z,30.13
2022-12-18T18:30:47.065Z,31.80
2022-12-18T18:34:15.901Z,33.43
2022-12-18T18:37:38.873Z,31.10
2022-12-18T18:41:05.760Z,29.97
2022-12-18T18:44:29.867Z,30.93
2022-12-18T18:47:53.748Z,32.30
2022-12-18T18:51:21.160Z,31.37
2022-12-18T18:55:10.771Z,33.73
2022-12-18T18:58:27.798Z,32.17
2022-12-18T19:01:52.725Z,32.73
2022-12-18T19:05:15.949Z,26.83
2022-12-18T19:08:40.639Z,30.13
2022-12-18T19:12:21.525Z,29.37
2022-12-18T19:15:45.857Z,28.63
2022-12-18T19:19:09.310Z,28.80
2022-12-18T19:22:32.267Z,31.20
2022-12-18T19:26:17.055Z,29.87
2022-12-18T19:29:39.612Z,28.80
2022-12-18T19:33:19.990Z,33.20
2022-12-18T19:36:45.414Z,36.87
2022-12-18T19:40:12.650Z,32.43
2022-12-18T19:43:37.535Z,30.03
2022-12-18T19:47:00.404Z,32.07
2022-12-18T19:50:23.339Z,33.83
2022-12-18T19:53:46.816Z,27.93
2022-12-18T19:57:11.452Z,28.50
2022-12-18T20:00:35.914Z,26.87
2022-12-18T20:03:59.588Z,29.80
2022-12-18T20:07:23.376Z,29.83
2022-12-18T20:10:48.851Z,33.40
2022-12-18T20:14:12.863Z,42.30
2022-12-18T20:17:37.205Z,29.43
2022-12-18T20:21:00.219Z,30.80
2022-12-18T20:24:24.532Z,28.83
2022-12-18T20:27:47.889Z,30.07
2022-12-18T20:31:13.486Z,31.40
2022-12-18T20:34:38.575Z,30.73
2022-12-18T20:38:02.493Z,28.63
2022-12-18T20:41:26.146Z,28.83
2022-12-18T20:44:50.648Z,31.40
2022-12-18T20:48:13.556Z,30.57
2022-12-18T20:51:38.253Z,28.77
2022-12-18T20:55:04.242Z,34.07
2022-12-18T20:58:27.283Z,30.17
2022-12-18T21:01:50.314Z,30.47
2022-12-18T21:05:13.236Z,31.93
2022-12-18T21:08:38.030Z,34.83
2022-12-18T21:12:18.423Z,34.27
2022-12-18T21:15:41.493Z,35.13
2022-12-18T21:19:04.543Z,34.07
2022-12-18T21:22:28.276Z,32.23
2022-12-18T21:25:55.952Z,29.87
2022-12-18T21:29:21.491Z,31.70
2022-12-18T21:32:44.416Z,29.37
2022-12-18T21:36:08.448Z,27.80
2022-12-18T21:39:32.702Z,29.40
2022-12-18T21:43:17.820Z,31.83
2022-12-18T21:46:43.261Z,30.00
2022-12-18T21:50:07.205Z,29.97
2022-12-18T21:53:30.290Z,28.37
2022-12-18T21:56:54.995Z,30.10
2022-12-18T22:00:20.314Z,30.00
2022-12-18T22:03:46.281Z,31.97
2022-12-18T22:07:10.513Z,30.27
2022-12-18T22:10:34.298Z,34.27
2022-12-18T22:13:57.225Z,31.83
2022-12-18T22:17:24.192Z,28.73
2022-12-18T22:20:47.085Z,29.73
2022-12-18T22:24:13.750Z,30.23
2022-12-18T22:27:37.073Z,32.27
2022-12-18T22:31:06.460Z,34.93
2022-12-18T22:34:34.484Z,31.17
2022-12-18T22:38:00.005Z,32.57
2022-12-18T22:41:22.901Z,33.33
2022-12-18T22:44:45.867Z,34.97
2022-12-18T22:48:08.727Z,34.50
2022-12-18T22:51:33.145Z,33.17
2022-12-18T22:54:57.076Z,34.17
2022-12-18T22:58:20.009Z,35.17
2022-12-18T23:01:43.107Z,35.10
2022-12-18T23:05:08.596Z,38.90
2022-12-18T23:08:33.161Z,38.63
2022-12-18T23:11:56.118Z,39.67
2022-12-18T23:15:19.866Z,37.60
2022-12-18T23:18:54.800Z,34.97
2022-12-18T23:22:17.735Z,36.73
2022-12-18T23:25:46.413Z,38.43
2022-12-18T23:29:11.787Z,36.73
2022-12-18T23:32:37.695Z,38.33
2022-12-18T23:36:01.830Z,38.77
2022-12-18T23:39:29.635Z,40.53
2022-12-18T23:42:54.420Z,39.53
2022-12-18T23:46:20.525Z,41.77
2022-12-18T23:49:43.485Z,45.27
2022-12-18T23:53:06.475Z,37.13
2022-12-18T23:56:30.745Z,39.43
2022-12-18T23:59:55.416Z,38.77
